sensor_id;sensor_type;location;lat;lon;timestamp;temperature;humidity
64987;DHT22;67903;52.108;9.358;2024-03-06T00:01:45;4.80;83.90
64987;DHT22;67903;52.108;9.358;2024-03-06T00:04:30;4.90;83.30
64987;DHT22;67903;52.108;9.358;2024-03-06T00:07:16;4.90;82.90
64987;DHT22;67903;52.108;9.358;2024-03-06T00:10:01;4.80;82.40
64987;DHT22;67903;52.108;9.358;2024-03-06T00:12:47;4.70;83.50
64987;DHT22;67903;52.108;9.358;2024-03-06T00:15:32;4.80;82.80
64987;DHT22;67903;52.108;9.358;2024-03-06T00:18:18;4.70;82.40
64987;DHT22;67903;52.108;9.358;2024-03-06T00:21:04;4.70;82.30
64987;DHT22;67903;52.108;9.358;2024-03-06T00:23:49;4.70;81.90
64987;DHT22;67903;52.108;9.358;2024-03-06T00:26:35;4.70;82.80
64987;DHT22;67903;52.108;9.358;2024-03-06T00:29:20;4.70;82.10
64987;DHT22;67903;52.108;9.358;2024-03-06T00:32:06;4.70;82.40
64987;DHT22;67903;52.108;9.358;2024-03-06T00:34:52;4.70;81.90
64987;DHT22;67903;52.108;9.358;2024-03-06T00:37:38;4.70;81.70
64987;DHT22;67903;52.108;9.358;2024-03-06T00:40:24;4.70;81.60
64987;DHT22;67903;52.108;9.358;2024-03-06T00:43:09;4.70;81.90
64987;DHT22;67903;52.108;9.358;2024-03-06T00:45:55;4.70;81.90
64987;DHT22;67903;52.108;9.358;2024-03-06T00:48:41;4.70;81.70
64987;DHT22;67903;52.108;9.358;2024-03-06T00:51:27;4.70;81.50
64987;DHT22;67903;52.108;9.358;2024-03-06T00:54:28;4.70;81.70
64987;DHT22;67903;52.108;9.358;2024-03-06T00:57:13;4.70;81.40
64987;DHT22;67903;52.108;9.358;2024-03-06T00:59:59;4.70;81.70
64987;DHT22;67903;52.108;9.358;2024-03-06T01:02:45;4.70;81.00
64987;DHT22;67903;52.108;9.358;2024-03-06T01:05:31;4.70;82.00
64987;DHT22;67903;52.108;9.358;2024-03-06T01:08:16;4.70;81.50
64987;DHT22;67903;52.108;9.358;2024-03-06T01:11:03;4.70;81.10
64987;DHT22;67903;52.108;9.358;2024-03-06T01:13:49;4.70;81.00
64987;DHT22;67903;52.108;9.358;2024-03-06T01:16:35;4.70;81.00
64987;DHT22;67903;52.108;9.358;2024-03-06T01:19:21;4.70;80.00
64987;DHT22;67903;52.108;9.358;2024-03-06T01:22:06;4.70;81.20
64987;DHT22;67903;52.108;9.358;2024-03-06T01:24:53;4.70;80.70
64987;DHT22;67903;52.108;9.358;2024-03-06T01:27:38;4.70;80.80
64987;DHT22;67903;52.108;9.358;2024-03-06T01:30:24;4.70;80.80
64987;DHT22;67903;52.108;9.358;2024-03-06T01:33:09;4.70;80.40
64987;DHT22;67903;52.108;9.358;2024-03-06T01:35:55;4.70;80.80
64987;DHT22;67903;52.108;9.358;2024-03-06T01:38:41;4.70;79.50
64987;DHT22;67903;52.108;9.358;2024-03-06T01:41:26;4.60;80.60
64987;DHT22;67903;52.108;9.358;2024-03-06T01:44:13;4.70;80.80
64987;DHT22;67903;52.108;9.358;2024-03-06T01:46:59;4.70;80.30
64987;DHT22;67903;52.108;9.358;2024-03-06T01:49:52;4.70;79.90
64987;DHT22;67903;52.108;9.358;2024-03-06T01:52:35;4.70;80.20
64987;DHT22;67903;52.108;9.358;2024-03-06T01:58:31;4.70;79.50
64987;DHT22;67903;52.108;9.358;2024-03-06T02:01:19;4.60;79.80
64987;DHT22;67903;52.108;9.358;2024-03-06T02:04:07;4.70;80.20
64987;DHT22;67903;52.108;9.358;2024-03-06T02:06:55;4.70;80.10
64987;DHT22;67903;52.108;9.358;2024-03-06T02:09:40;4.70;79.80
64987;DHT22;67903;52.108;9.358;2024-03-06T02:12:26;4.70;79.40
64987;DHT22;67903;52.108;9.358;2024-03-06T02:15:13;4.60;79.80
64987;DHT22;67903;52.108;9.358;2024-03-06T02:17:58;4.60;80.20
64987;DHT22;67903;52.108;9.358;2024-03-06T02:20:44;4.70;80.00
64987;DHT22;67903;52.108;9.358;2024-03-06T02:23:30;4.70;80.40
64987;DHT22;67903;52.108;9.358;2024-03-06T02:26:20;4.70;79.90
64987;DHT22;67903;52.108;9.358;2024-03-06T02:29:06;4.70;80.30
64987;DHT22;67903;52.108;9.358;2024-03-06T02:31:52;4.60;80.50
64987;DHT22;67903;52.108;9.358;2024-03-06T02:34:37;4.70;80.50
64987;DHT22;67903;52.108;9.358;2024-03-06T02:37:23;4.60;80.00
64987;DHT22;67903;52.108;9.358;2024-03-06T02:40:10;4.70;80.60
64987;DHT22;67903;52.108;9.358;2024-03-06T02:42:55;4.70;80.20
64987;DHT22;67903;52.108;9.358;2024-03-06T02:45:41;4.70;80.00
64987;DHT22;67903;52.108;9.358;2024-03-06T02:48:26;4.60;80.10
64987;DHT22;67903;52.108;9.358;2024-03-06T02:51:12;4.50;79.70
64987;DHT22;67903;52.108;9.358;2024-03-06T02:53:57;4.60;80.30
64987;DHT22;67903;52.108;9.358;2024-03-06T02:56:43;4.60;80.20
64987;DHT22;67903;52.108;9.358;2024-03-06T02:59:28;4.70;80.30
64987;DHT22;67903;52.108;9.358;2024-03-06T03:02:14;4.60;79.70
64987;DHT22;67903;52.108;9.358;2024-03-06T03:04:59;4.60;80.00
64987;DHT22;67903;52.108;9.358;2024-03-06T03:07:45;4.50;79.80
64987;DHT22;67903;52.108;9.358;2024-03-06T03:10:31;4.60;80.50
64987;DHT22;67903;52.108;9.358;2024-03-06T03:13:16;4.60;80.60
64987;DHT22;67903;52.108;9.358;2024-03-06T03:16:02;4.50;80.60
64987;DHT22;67903;52.108;9.358;2024-03-06T03:18:49;4.60;80.80
64987;DHT22;67903;52.108;9.358;2024-03-06T03:21:34;4.60;80.30
64987;DHT22;67903;52.108;9.358;2024-03-06T03:24:20;4.60;80.00
64987;DHT22;67903;52.108;9.358;2024-03-06T03:27:06;4.70;80.30
64987;DHT22;67903;52.108;9.358;2024-03-06T03:29:52;4.70;81.00
64987;DHT22;67903;52.108;9.358;2024-03-06T03:32:38;4.70;80.20
64987;DHT22;67903;52.108;9.358;2024-03-06T03:35:25;4.70;80.10
64987;DHT22;67903;52.108;9.358;2024-03-06T03:38:10;4.70;80.10
64987;DHT22;67903;52.108;9.358;2024-03-06T03:40:56;4.70;80.10
64987;DHT22;67903;52.108;9.358;2024-03-06T03:43:42;4.70;79.60
64987;DHT22;67903;52.108;9.358;2024-03-06T03:46:28;4.60;79.70
64987;DHT22;67903;52.108;9.358;2024-03-06T03:49:13;4.60;80.30
64987;DHT22;67903;52.108;9.358;2024-03-06T03:51:58;4.60;79.80
64987;DHT22;67903;52.108;9.358;2024-03-06T03:54:44;4.60;80.30
64987;DHT22;67903;52.108;9.358;2024-03-06T03:57:30;4.70;80.20
64987;DHT22;67903;52.108;9.358;2024-03-06T04:00:16;4.60;79.90
64987;DHT22;67903;52.108;9.358;2024-03-06T04:03:02;4.60;80.30
64987;DHT22;67903;52.108;9.358;2024-03-06T04:05:48;4.60;80.30
64987;DHT22;67903;52.108;9.358;2024-03-06T04:08:34;4.70;80.40
64987;DHT22;67903;52.108;9.358;2024-03-06T04:11:19;4.70;80.50
64987;DHT22;67903;52.108;9.358;2024-03-06T04:14:05;4.60;80.30
64987;DHT22;67903;52.108;9.358;2024-03-06T04:16:54;4.60;80.70
64987;DHT22;67903;52.108;9.358;2024-03-06T04:19:39;4.60;80.40
64987;DHT22;67903;52.108;9.358;2024-03-06T04:22:25;4.60;80.10
64987;DHT22;67903;52.108;9.358;2024-03-06T04:25:11;4.70;80.40
64987;DHT22;67903;52.108;9.358;2024-03-06T04:27:56;4.70;80.60
64987;DHT22;67903;52.108;9.358;2024-03-06T04:30:42;4.70;79.60
64987;DHT22;67903;52.108;9.358;2024-03-06T04:33:27;4.70;80.40
64987;DHT22;67903;52.108;9.358;2024-03-06T04:36:13;4.70;80.40
64987;DHT22;67903;52.108;9.358;2024-03-06T04:38:59;4.70;80.20
64987;DHT22;67903;52.108;9.358;2024-03-06T04:41:44;4.70;80.00
64987;DHT22;67903;52.108;9.358;2024-03-06T04:44:33;4.60;80.50
64987;DHT22;67903;52.108;9.358;2024-03-06T04:47:19;4.60;80.80
64987;DHT22;67903;52.108;9.358;2024-03-06T04:50:08;4.60;81.10
64987;DHT22;67903;52.108;9.358;2024-03-06T04:52:55;4.70;80.80
64987;DHT22;67903;52.108;9.358;2024-03-06T04:55:41;4.60;80.90
64987;DHT22;67903;52.108;9.358;2024-03-06T04:58:26;4.70;80.90
64987;DHT22;67903;52.108;9.358;2024-03-06T05:01:12;4.70;81.20
64987;DHT22;67903;52.108;9.358;2024-03-06T05:03:58;4.70;81.10
64987;DHT22;67903;52.108;9.358;2024-03-06T05:07:01;4.70;81.20
64987;DHT22;67903;52.108;9.358;2024-03-06T05:10:04;4.70;81.00
64987;DHT22;67903;52.108;9.358;2024-03-06T05:13:10;4.70;81.20
64987;DHT22;67903;52.108;9.358;2024-03-06T05:16:13;4.80;81.10
64987;DHT22;67903;52.108;9.358;2024-03-06T05:19:16;4.70;81.00
64987;DHT22;67903;52.108;9.358;2024-03-06T05:22:19;4.80;81.00
64987;DHT22;67903;52.108;9.358;2024-03-06T05:25:22;4.80;81.50
64987;DHT22;67903;52.108;9.358;2024-03-06T05:28:25;4.70;81.10
64987;DHT22;67903;52.108;9.358;2024-03-06T05:31:28;4.70;80.70
64987;DHT22;67903;52.108;9.358;2024-03-06T05:34:31;4.70;81.00
64987;DHT22;67903;52.108;9.358;2024-03-06T05:37:34;4.80;81.20
64987;DHT22;67903;52.108;9.358;2024-03-06T05:40:37;4.70;81.40
64987;DHT22;67903;52.108;9.358;2024-03-06T05:43:43;4.70;81.20
64987;DHT22;67903;52.108;9.358;2024-03-06T05:46:47;4.70;81.50
64987;DHT22;67903;52.108;9.358;2024-03-06T05:49:50;4.70;80.80
64987;DHT22;67903;52.108;9.358;2024-03-06T05:52:53;4.70;80.20
64987;DHT22;67903;52.108;9.358;2024-03-06T05:55:56;4.70;80.90
64987;DHT22;67903;52.108;9.358;2024-03-06T05:58:59;4.70;81.40
64987;DHT22;67903;52.108;9.358;2024-03-06T06:01:47;4.70;81.60
64987;DHT22;67903;52.108;9.358;2024-03-06T06:04:32;4.70;81.80
64987;DHT22;67903;52.108;9.358;2024-03-06T06:07:28;4.80;81.00
64987;DHT22;67903;52.108;9.358;2024-03-06T06:10:14;4.80;81.20
64987;DHT22;67903;52.108;9.358;2024-03-06T06:13:01;4.80;81.10
64987;DHT22;67903;52.108;9.358;2024-03-06T06:15:50;4.80;81.20
64987;DHT22;67903;52.108;9.358;2024-03-06T06:18:35;4.90;80.90
64987;DHT22;67903;52.108;9.358;2024-03-06T06:21:20;4.90;81.50
64987;DHT22;67903;52.108;9.358;2024-03-06T06:24:06;4.90;81.00
64987;DHT22;67903;52.108;9.358;2024-03-06T06:26:52;5.00;80.70
64987;DHT22;67903;52.108;9.358;2024-03-06T06:29:38;4.90;80.90
64987;DHT22;67903;52.108;9.358;2024-03-06T06:32:23;5.00;80.30
64987;DHT22;67903;52.108;9.358;2024-03-06T06:35:10;4.90;80.30
64987;DHT22;67903;52.108;9.358;2024-03-06T06:37:56;4.90;80.40
64987;DHT22;67903;52.108;9.358;2024-03-06T06:40:42;4.90;80.80
64987;DHT22;67903;52.108;9.358;2024-03-06T06:43:27;4.90;81.20
64987;DHT22;67903;52.108;9.358;2024-03-06T06:46:13;5.00;81.40
64987;DHT22;67903;52.108;9.358;2024-03-06T06:48:58;5.00;80.80
64987;DHT22;67903;52.108;9.358;2024-03-06T06:51:44;5.00;80.90
64987;DHT22;67903;52.108;9.358;2024-03-06T06:54:30;5.00;80.50
64987;DHT22;67903;52.108;9.358;2024-03-06T06:57:15;5.00;80.20
64987;DHT22;67903;52.108;9.358;2024-03-06T07:00:02;5.10;80.20
64987;DHT22;67903;52.108;9.358;2024-03-06T07:02:56;5.20;80.50
64987;DHT22;67903;52.108;9.358;2024-03-06T07:05:44;5.30;79.40
64987;DHT22;67903;52.108;9.358;2024-03-06T07:08:29;5.30;79.90
64987;DHT22;67903;52.108;9.358;2024-03-06T07:11:16;5.30;79.60
64987;DHT22;67903;52.108;9.358;2024-03-06T07:14:02;5.30;79.30
64987;DHT22;67903;52.108;9.358;2024-03-06T07:16:47;5.40;79.30
64987;DHT22;67903;52.108;9.358;2024-03-06T07:19:33;5.40;78.90
64987;DHT22;67903;52.108;9.358;2024-03-06T07:22:19;5.30;79.30
64987;DHT22;67903;52.108;9.358;2024-03-06T07:25:04;5.30;79.10
64987;DHT22;67903;52.108;9.358;2024-03-06T07:27:50;5.40;79.70
64987;DHT22;67903;52.108;9.358;2024-03-06T07:30:36;5.50;78.80
64987;DHT22;67903;52.108;9.358;2024-03-06T07:33:21;5.40;78.70
64987;DHT22;67903;52.108;9.358;2024-03-06T07:36:07;5.50;78.90
64987;DHT22;67903;52.108;9.358;2024-03-06T07:38:52;5.50;78.40
64987;DHT22;67903;52.108;9.358;2024-03-06T07:41:38;5.50;78.40
64987;DHT22;67903;52.108;9.358;2024-03-06T07:44:23;5.50;78.50
64987;DHT22;67903;52.108;9.358;2024-03-06T07:47:09;5.60;78.60
64987;DHT22;67903;52.108;9.358;2024-03-06T07:49:54;5.60;78.10
64987;DHT22;67903;52.108;9.358;2024-03-06T07:52:40;5.50;78.50
64987;DHT22;67903;52.108;9.358;2024-03-06T07:55:26;5.50;78.40
64987;DHT22;67903;52.108;9.358;2024-03-06T07:58:11;5.50;78.20
64987;DHT22;67903;52.108;9.358;2024-03-06T08:00:57;5.50;79.30
64987;DHT22;67903;52.108;9.358;2024-03-06T08:03:42;5.50;78.40
64987;DHT22;67903;52.108;9.358;2024-03-06T08:06:29;5.60;78.60
64987;DHT22;67903;52.108;9.358;2024-03-06T08:09:15;5.70;78.70
64987;DHT22;67903;52.108;9.358;2024-03-06T08:12:01;5.70;78.40
64987;DHT22;67903;52.108;9.358;2024-03-06T08:14:47;5.80;78.10
64987;DHT22;67903;52.108;9.358;2024-03-06T08:17:33;5.80;77.90
64987;DHT22;67903;52.108;9.358;2024-03-06T08:20:18;5.90;77.70
64987;DHT22;67903;52.108;9.358;2024-03-06T08:23:04;5.80;77.50
64987;DHT22;67903;52.108;9.358;2024-03-06T08:25:49;5.90;78.10
64987;DHT22;67903;52.108;9.358;2024-03-06T08:28:35;5.90;77.50
64987;DHT22;67903;52.108;9.358;2024-03-06T08:31:20;5.90;77.70
64987;DHT22;67903;52.108;9.358;2024-03-06T08:34:06;5.90;78.10
64987;DHT22;67903;52.108;9.358;2024-03-06T08:36:53;5.90;77.70
64987;DHT22;67903;52.108;9.358;2024-03-06T08:39:40;5.80;77.70
64987;DHT22;67903;52.108;9.358;2024-03-06T08:42:26;5.90;77.80
64987;DHT22;67903;52.108;9.358;2024-03-06T08:45:12;6.00;77.70
64987;DHT22;67903;52.108;9.358;2024-03-06T08:47:59;5.90;77.20
64987;DHT22;67903;52.108;9.358;2024-03-06T08:50:45;5.90;77.20
64987;DHT22;67903;52.108;9.358;2024-03-06T08:53:31;6.00;77.90
64987;DHT22;67903;52.108;9.358;2024-03-06T08:56:16;6.00;77.10
64987;DHT22;67903;52.108;9.358;2024-03-06T08:59:02;6.10;76.70
64987;DHT22;67903;52.108;9.358;2024-03-06T09:01:48;6.10;76.90
64987;DHT22;67903;52.108;9.358;2024-03-06T09:04:33;6.10;76.70
64987;DHT22;67903;52.108;9.358;2024-03-06T09:07:19;6.10;77.10
64987;DHT22;67903;52.108;9.358;2024-03-06T09:10:10;6.10;76.90
64987;DHT22;67903;52.108;9.358;2024-03-06T09:12:56;6.10;76.80
64987;DHT22;67903;52.108;9.358;2024-03-06T09:15:41;6.10;76.70
64987;DHT22;67903;52.108;9.358;2024-03-06T09:18:27;6.00;77.10
64987;DHT22;67903;52.108;9.358;2024-03-06T09:21:12;6.10;77.10
64987;DHT22;67903;52.108;9.358;2024-03-06T09:23:58;6.10;77.30
64987;DHT22;67903;52.108;9.358;2024-03-06T09:26:44;6.20;76.80
64987;DHT22;67903;52.108;9.358;2024-03-06T09:29:30;6.20;77.10
64987;DHT22;67903;52.108;9.358;2024-03-06T09:32:15;6.30;77.00
64987;DHT22;67903;52.108;9.358;2024-03-06T09:35:06;6.20;76.50
64987;DHT22;67903;52.108;9.358;2024-03-06T09:37:52;6.20;75.90
64987;DHT22;67903;52.108;9.358;2024-03-06T09:40:37;6.20;76.40
64987;DHT22;67903;52.108;9.358;2024-03-06T09:43:23;6.20;76.70
64987;DHT22;67903;52.108;9.358;2024-03-06T09:46:09;6.20;76.10
64987;DHT22;67903;52.108;9.358;2024-03-06T09:48:55;6.20;76.50
64987;DHT22;67903;52.108;9.358;2024-03-06T09:51:45;6.20;76.40
64987;DHT22;67903;52.108;9.358;2024-03-06T09:54:31;6.30;76.40
64987;DHT22;67903;52.108;9.358;2024-03-06T09:57:16;6.30;76.60
64987;DHT22;67903;52.108;9.358;2024-03-06T10:00:02;6.40;76.20
64987;DHT22;67903;52.108;9.358;2024-03-06T10:02:57;6.50;76.20
64987;DHT22;67903;52.108;9.358;2024-03-06T10:05:46;6.40;76.00
64987;DHT22;67903;52.108;9.358;2024-03-06T10:08:31;6.40;76.40
64987;DHT22;67903;52.108;9.358;2024-03-06T10:11:18;6.20;76.80
64987;DHT22;67903;52.108;9.358;2024-03-06T10:14:04;6.30;76.80
64987;DHT22;67903;52.108;9.358;2024-03-06T10:16:57;6.40;76.70
64987;DHT22;67903;52.108;9.358;2024-03-06T10:19:43;6.60;76.60
64987;DHT22;67903;52.108;9.358;2024-03-06T10:22:35;6.60;76.10
64987;DHT22;67903;52.108;9.358;2024-03-06T10:25:21;6.60;76.20
64987;DHT22;67903;52.108;9.358;2024-03-06T10:28:08;6.60;75.70
64987;DHT22;67903;52.108;9.358;2024-03-06T10:31:04;6.60;75.70
64987;DHT22;67903;52.108;9.358;2024-03-06T10:33:51;6.70;75.70
64987;DHT22;67903;52.108;9.358;2024-03-06T10:36:37;6.70;75.30
64987;DHT22;67903;52.108;9.358;2024-03-06T10:39:23;6.60;75.60
64987;DHT22;67903;52.108;9.358;2024-03-06T10:42:13;6.70;75.50
64987;DHT22;67903;52.108;9.358;2024-03-06T10:44:59;6.80;74.80
64987;DHT22;67903;52.108;9.358;2024-03-06T10:47:46;6.70;75.30
64987;DHT22;67903;52.108;9.358;2024-03-06T10:50:35;6.80;75.20
64987;DHT22;67903;52.108;9.358;2024-03-06T10:53:26;6.90;74.40
64987;DHT22;67903;52.108;9.358;2024-03-06T10:56:15;6.90;74.50
64987;DHT22;67903;52.108;9.358;2024-03-06T10:59:01;6.90;74.30
64987;DHT22;67903;52.108;9.358;2024-03-06T11:01:48;6.90;74.30
64987;DHT22;67903;52.108;9.358;2024-03-06T11:04:34;6.80;74.80
64987;DHT22;67903;52.108;9.358;2024-03-06T11:07:21;6.80;74.50
64987;DHT22;67903;52.108;9.358;2024-03-06T11:10:06;6.80;74.10
64987;DHT22;67903;52.108;9.358;2024-03-06T11:12:52;6.80;74.20
64987;DHT22;67903;52.108;9.358;2024-03-06T11:15:38;6.90;74.30
64987;DHT22;67903;52.108;9.358;2024-03-06T11:24:18;7.20;73.80
64987;DHT22;67903;52.108;9.358;2024-03-06T11:27:05;7.30;73.50
64987;DHT22;67903;52.108;9.358;2024-03-06T11:30:11;7.40;72.30
64987;DHT22;67903;52.108;9.358;2024-03-06T11:33:03;7.50;72.70
64987;DHT22;67903;52.108;9.358;2024-03-06T11:36:14;7.50;72.50
64987;DHT22;67903;52.108;9.358;2024-03-06T11:39:03;7.40;72.50
64987;DHT22;67903;52.108;9.358;2024-03-06T11:41:50;7.50;72.80
64987;DHT22;67903;52.108;9.358;2024-03-06T11:44:36;7.60;72.50
64987;DHT22;67903;52.108;9.358;2024-03-06T11:47:22;7.70;72.00
64987;DHT22;67903;52.108;9.358;2024-03-06T11:50:08;7.80;71.80
64987;DHT22;67903;52.108;9.358;2024-03-06T11:52:54;7.80;70.90
64987;DHT22;67903;52.108;9.358;2024-03-06T11:55:43;7.80;71.00
64987;DHT22;67903;52.108;9.358;2024-03-06T11:58:28;8.00;70.90
64987;DHT22;67903;52.108;9.358;2024-03-06T12:01:14;8.00;70.70
64987;DHT22;67903;52.108;9.358;2024-03-06T12:04:00;8.00;70.10
64987;DHT22;67903;52.108;9.358;2024-03-06T12:06:49;7.80;70.20
64987;DHT22;67903;52.108;9.358;2024-03-06T12:09:38;7.90;70.50
64987;DHT22;67903;52.108;9.358;2024-03-06T12:12:29;8.00;70.90
64987;DHT22;67903;52.108;9.358;2024-03-06T12:15:15;8.00;70.30
64987;DHT22;67903;52.108;9.358;2024-03-06T12:18:00;8.00;70.30
64987;DHT22;67903;52.108;9.358;2024-03-06T12:20:46;7.90;70.90
64987;DHT22;67903;52.108;9.358;2024-03-06T12:23:31;8.00;70.60
64987;DHT22;67903;52.108;9.358;2024-03-06T12:26:22;8.10;70.90
64987;DHT22;67903;52.108;9.358;2024-03-06T12:29:09;8.00;70.30
64987;DHT22;67903;52.108;9.358;2024-03-06T12:31:55;8.00;70.90
64987;DHT22;67903;52.108;9.358;2024-03-06T12:34:43;8.00;70.70
64987;DHT22;67903;52.108;9.358;2024-03-06T12:37:29;8.10;70.80
64987;DHT22;67903;52.108;9.358;2024-03-06T12:40:20;8.10;70.70
64987;DHT22;67903;52.108;9.358;2024-03-06T12:43:05;8.10;70.10
64987;DHT22;67903;52.108;9.358;2024-03-06T12:45:51;8.10;70.40
64987;DHT22;67903;52.108;9.358;2024-03-06T12:48:40;8.30;70.20
64987;DHT22;67903;52.108;9.358;2024-03-06T12:51:25;8.30;70.10
64987;DHT22;67903;52.108;9.358;2024-03-06T12:54:11;8.40;69.70
64987;DHT22;67903;52.108;9.358;2024-03-06T12:56:57;8.40;69.30
64987;DHT22;67903;52.108;9.358;2024-03-06T12:59:42;8.40;68.70
64987;DHT22;67903;52.108;9.358;2024-03-06T13:02:27;8.30;68.90
64987;DHT22;67903;52.108;9.358;2024-03-06T13:05:13;8.40;68.50
64987;DHT22;67903;52.108;9.358;2024-03-06T13:07:59;8.40;69.30
64987;DHT22;67903;52.108;9.358;2024-03-06T13:10:45;8.40;68.40
64987;DHT22;67903;52.108;9.358;2024-03-06T13:13:30;8.50;68.00
64987;DHT22;67903;52.108;9.358;2024-03-06T13:16:18;8.60;68.70
64987;DHT22;67903;52.108;9.358;2024-03-06T13:19:03;8.90;67.50
64987;DHT22;67903;52.108;9.358;2024-03-06T13:21:49;9.00;67.30
64987;DHT22;67903;52.108;9.358;2024-03-06T13:24:35;9.20;66.60
64987;DHT22;67903;52.108;9.358;2024-03-06T13:27:23;9.10;66.30
64987;DHT22;67903;52.108;9.358;2024-03-06T13:30:08;9.10;65.70
64987;DHT22;67903;52.108;9.358;2024-03-06T13:32:54;9.00;66.60
64987;DHT22;67903;52.108;9.358;2024-03-06T13:35:42;9.20;65.90
64987;DHT22;67903;52.108;9.358;2024-03-06T13:38:28;9.20;66.20
64987;DHT22;67903;52.108;9.358;2024-03-06T13:41:13;9.20;66.10
64987;DHT22;67903;52.108;9.358;2024-03-06T13:43:59;9.10;66.50
64987;DHT22;67903;52.108;9.358;2024-03-06T13:46:44;9.00;65.60
64987;DHT22;67903;52.108;9.358;2024-03-06T13:49:38;9.10;66.20
64987;DHT22;67903;52.108;9.358;2024-03-06T13:52:23;9.20;65.70
64987;DHT22;67903;52.108;9.358;2024-03-06T13:55:09;9.30;65.40
64987;DHT22;67903;52.108;9.358;2024-03-06T13:57:55;9.40;65.10
64987;DHT22;67903;52.108;9.358;2024-03-06T14:00:40;9.20;65.50
64987;DHT22;67903;52.108;9.358;2024-03-06T14:03:26;9.00;65.00
64987;DHT22;67903;52.108;9.358;2024-03-06T14:06:11;9.00;65.90
64987;DHT22;67903;52.108;9.358;2024-03-06T14:08:57;9.00;66.20
64987;DHT22;67903;52.108;9.358;2024-03-06T14:11:42;9.00;66.40
64987;DHT22;67903;52.108;9.358;2024-03-06T14:14:28;9.10;65.90
64987;DHT22;67903;52.108;9.358;2024-03-06T14:17:14;9.20;66.30
64987;DHT22;67903;52.108;9.358;2024-03-06T14:20:00;9.40;66.00
64987;DHT22;67903;52.108;9.358;2024-03-06T14:22:45;9.40;65.30
64987;DHT22;67903;52.108;9.358;2024-03-06T14:25:31;9.40;65.50
64987;DHT22;67903;52.108;9.358;2024-03-06T14:28:20;9.50;65.50
64987;DHT22;67903;52.108;9.358;2024-03-06T14:31:06;9.40;65.00
64987;DHT22;67903;52.108;9.358;2024-03-06T14:33:52;9.40;65.20
64987;DHT22;67903;52.108;9.358;2024-03-06T14:36:37;9.30;64.70
64987;DHT22;67903;52.108;9.358;2024-03-06T14:39:23;9.20;64.70
64987;DHT22;67903;52.108;9.358;2024-03-06T14:42:12;9.20;65.00
64987;DHT22;67903;52.108;9.358;2024-03-06T14:44:57;9.20;64.50
64987;DHT22;67903;52.108;9.358;2024-03-06T14:47:44;9.10;65.00
64987;DHT22;67903;52.108;9.358;2024-03-06T14:50:29;9.20;64.90
64987;DHT22;67903;52.108;9.358;2024-03-06T14:53:15;9.00;65.10
64987;DHT22;67903;52.108;9.358;2024-03-06T14:56:00;8.90;65.80
64987;DHT22;67903;52.108;9.358;2024-03-06T14:58:46;9.00;65.80
64987;DHT22;67903;52.108;9.358;2024-03-06T15:01:31;9.20;65.60
64987;DHT22;67903;52.108;9.358;2024-03-06T15:04:17;9.20;65.10
64987;DHT22;67903;52.108;9.358;2024-03-06T15:07:02;9.20;65.30
64987;DHT22;67903;52.108;9.358;2024-03-06T15:09:48;9.10;65.30
64987;DHT22;67903;52.108;9.358;2024-03-06T15:12:37;9.00;65.00
64987;DHT22;67903;52.108;9.358;2024-03-06T15:15:24;8.90;65.40
64987;DHT22;67903;52.108;9.358;2024-03-06T15:18:10;8.90;65.50
64987;DHT22;67903;52.108;9.358;2024-03-06T15:20:56;8.80;65.10
64987;DHT22;67903;52.108;9.358;2024-03-06T15:23:41;8.60;66.10
64987;DHT22;67903;52.108;9.358;2024-03-06T15:26:27;8.80;65.70
64987;DHT22;67903;52.108;9.358;2024-03-06T15:29:12;8.80;65.30
64987;DHT22;67903;52.108;9.358;2024-03-06T15:31:58;8.80;65.20
64987;DHT22;67903;52.108;9.358;2024-03-06T15:34:45;8.80;65.70
64987;DHT22;67903;52.108;9.358;2024-03-06T15:37:30;8.70;65.50
64987;DHT22;67903;52.108;9.358;2024-03-06T15:40:17;8.50;65.20
64987;DHT22;67903;52.108;9.358;2024-03-06T15:43:02;8.40;65.90
64987;DHT22;67903;52.108;9.358;2024-03-06T15:45:48;8.40;65.70
64987;DHT22;67903;52.108;9.358;2024-03-06T15:48:34;8.40;65.60
64987;DHT22;67903;52.108;9.358;2024-03-06T15:51:20;8.30;66.10
64987;DHT22;67903;52.108;9.358;2024-03-06T15:54:05;8.40;65.80
64987;DHT22;67903;52.108;9.358;2024-03-06T15:56:51;8.30;65.50
64987;DHT22;67903;52.108;9.358;2024-03-06T15:59:36;8.20;66.10
64987;DHT22;67903;52.108;9.358;2024-03-06T16:02:22;8.20;65.80
64987;DHT22;67903;52.108;9.358;2024-03-06T16:05:09;8.10;66.10
64987;DHT22;67903;52.108;9.358;2024-03-06T16:07:59;8.10;65.90
64987;DHT22;67903;52.108;9.358;2024-03-06T16:10:50;8.00;65.80
64987;DHT22;67903;52.108;9.358;2024-03-06T16:13:35;8.00;65.70
64987;DHT22;67903;52.108;9.358;2024-03-06T16:16:21;8.00;65.80
64987;DHT22;67903;52.108;9.358;2024-03-06T16:19:07;8.00;66.00
64987;DHT22;67903;52.108;9.358;2024-03-06T16:21:52;8.00;66.20
64987;DHT22;67903;52.108;9.358;2024-03-06T16:24:39;8.00;66.40
64987;DHT22;67903;52.108;9.358;2024-03-06T16:27:24;7.90;66.30
64987;DHT22;67903;52.108;9.358;2024-03-06T16:30:10;8.00;66.80
64987;DHT22;67903;52.108;9.358;2024-03-06T16:32:56;8.00;65.80
64987;DHT22;67903;52.108;9.358;2024-03-06T16:35:41;8.00;66.20
64987;DHT22;67903;52.108;9.358;2024-03-06T16:38:26;7.90;65.40
64987;DHT22;67903;52.108;9.358;2024-03-06T16:41:13;7.90;65.70
64987;DHT22;67903;52.108;9.358;2024-03-06T16:43:58;7.90;65.80
64987;DHT22;67903;52.108;9.358;2024-03-06T16:46:44;7.80;65.90
64987;DHT22;67903;52.108;9.358;2024-03-06T16:49:30;7.80;65.90
64987;DHT22;67903;52.108;9.358;2024-03-06T16:52:16;7.80;65.80
64987;DHT22;67903;52.108;9.358;2024-03-06T16:55:01;7.80;66.00
64987;DHT22;67903;52.108;9.358;2024-03-06T16:57:48;7.70;66.20
64987;DHT22;67903;52.108;9.358;2024-03-06T17:00:33;7.60;66.20
64987;DHT22;67903;52.108;9.358;2024-03-06T17:03:19;7.60;66.20
64987;DHT22;67903;52.108;9.358;2024-03-06T17:06:05;7.60;66.30
64987;DHT22;67903;52.108;9.358;2024-03-06T17:08:50;7.60;66.50
64987;DHT22;67903;52.108;9.358;2024-03-06T17:11:36;7.60;66.80
64987;DHT22;67903;52.108;9.358;2024-03-06T17:14:21;7.60;66.50
64987;DHT22;67903;52.108;9.358;2024-03-06T17:17:07;7.50;66.80
64987;DHT22;67903;52.108;9.358;2024-03-06T17:19:52;7.60;67.00
64987;DHT22;67903;52.108;9.358;2024-03-06T17:22:38;7.60;66.90
64987;DHT22;67903;52.108;9.358;2024-03-06T17:25:23;7.50;66.90
64987;DHT22;67903;52.108;9.358;2024-03-06T17:28:09;7.60;67.00
64987;DHT22;67903;52.108;9.358;2024-03-06T17:30:54;7.50;67.30
64987;DHT22;67903;52.108;9.358;2024-03-06T17:33:40;7.50;67.20
64987;DHT22;67903;52.108;9.358;2024-03-06T17:36:25;7.50;67.20
64987;DHT22;67903;52.108;9.358;2024-03-06T17:39:11;7.40;67.40
64987;DHT22;67903;52.108;9.358;2024-03-06T17:41:57;7.50;67.90
64987;DHT22;67903;52.108;9.358;2024-03-06T17:44:43;7.50;67.50
64987;DHT22;67903;52.108;9.358;2024-03-06T17:47:28;7.50;67.90
64987;DHT22;67903;52.108;9.358;2024-03-06T17:50:14;7.50;67.60
64987;DHT22;67903;52.108;9.358;2024-03-06T17:53:00;7.50;67.40
64987;DHT22;67903;52.108;9.358;2024-03-06T17:55:45;7.50;67.70
64987;DHT22;67903;52.108;9.358;2024-03-06T17:58:31;7.40;67.50
64987;DHT22;67903;52.108;9.358;2024-03-06T18:01:17;7.40;67.70